Okemos, Michigan
Current Conditions -  °F | °C
As of 7:53 AM on Friday 28 Nov 2014 (Local Time) from KLAN Reporting Station
Overcast Overcast  
Wind Chill: 12°   Ceiling: 3500
Heat Index: 19°   Visibility: 10mi
Dew Point: 10°   Wind: 5mph
Humidity: 68%   Direction: 180°S
Pressure: 30.31"   Gusts: NA
Location:  42.72°N, 84.43°W
Report Text: KLAN 281253Z 18004KT 10SM OVC035 M07/M12 A3031 RMK AO2 SLP279 T10721122
Loading
Personal Weather Stations






























Interactive Weather Map New forecast layout! Learn more

10-Day Weather Forecast

Advertisements
Track Severe Weather on mobile